Time;durP1;ratioP1;P1;durP2;ratioP2;P2;SDS_P1;SDS_P2;PMS_P1;PMS_P2;Temp;Humidity;BMP_temperature;BMP_pressure;BME280_temperature;BME280_humidity;BME280_pressure;Samples;Min_cycle;Max_cycle;Signal;HPM_P1;HPM_P2
2021/08/07 00:01:04;;;;;;;2.43;1.50;;;17.00;99.90;;;;;;4972334;28;20200;-77
2021/08/07 00:03:29;;;;;;;2.93;1.60;;;17.00;99.90;;;;;;4972689;28;20208;-78
2021/08/07 00:05:55;;;;;;;2.73;1.67;;;17.00;99.90;;;;;;4971979;28;20184;-77
2021/08/07 00:08:20;;;;;;;2.13;1.43;;;17.00;99.90;;;;;;4972691;28;20177;-77
2021/08/07 00:10:46;;;;;;;3.57;1.70;;;16.90;99.90;;;;;;4972043;28;20240;-77
2021/08/07 00:13:11;;;;;;;3.83;2.00;;;16.90;99.90;;;;;;4972269;28;20842;-77
2021/08/07 00:15:37;;;;;;;4.20;1.60;;;16.90;99.90;;;;;;4972494;28;20553;-77
2021/08/07 00:18:03;;;;;;;2.57;1.50;;;16.90;99.90;;;;;;4972407;28;20204;-77
2021/08/07 00:20:28;;;;;;;6.23;1.60;;;16.80;99.90;;;;;;4972175;28;20222;-77
2021/08/07 00:22:54;;;;;;;2.83;1.77;;;16.80;99.90;;;;;;4956039;28;20657;-78
2021/08/07 00:25:19;;;;;;;4.13;1.80;;;16.80;99.90;;;;;;4972449;28;20172;-78
2021/08/07 00:27:45;;;;;;;4.93;1.87;;;16.80;99.90;;;;;;4972153;28;20613;-78
2021/08/07 00:30:11;;;;;;;3.10;1.40;;;16.80;99.90;;;;;;4972053;28;20686;-77
2021/08/07 00:32:37;;;;;;;2.73;1.47;;;16.70;99.90;;;;;;4972706;28;20212;-77
2021/08/07 00:35:03;;;;;;;4.07;1.57;;;16.70;99.90;;;;;;4972356;28;20288;-78
2021/08/07 00:37:28;;;;;;;3.80;1.50;;;16.70;99.90;;;;;;4972494;28;20192;-78
2021/08/07 00:39:54;;;;;;;3.33;1.43;;;16.70;99.90;;;;;;4972104;28;20183;-78
2021/08/07 00:42:19;;;;;;;3.33;1.90;;;16.70;99.90;;;;;;4972218;28;20208;-78
2021/08/07 00:44:45;;;;;;;3.00;1.60;;;16.80;99.90;;;;;;4972412;28;20176;-78
2021/08/07 00:47:10;;;;;;;1.83;1.47;;;16.70;99.90;;;;;;4972749;28;20201;-78
2021/08/07 00:49:36;;;;;;;3.40;1.47;;;16.70;99.90;;;;;;4974829;28;20716;-78
2021/08/07 00:52:02;;;;;;;4.20;1.70;;;16.70;99.90;;;;;;4972431;28;20208;-78
2021/08/07 00:54:27;;;;;;;3.57;1.87;;;16.70;99.90;;;;;;4974114;28;20181;-78
2021/08/07 00:56:53;;;;;;;3.80;1.83;;;16.70;99.90;;;;;;4972448;28;20180;-78
2021/08/07 00:59:18;;;;;;;1.87;1.40;;;16.80;99.90;;;;;;4971967;28;20189;-77
2021/08/07 01:02:02;;;;;;;2.27;1.70;;;16.70;99.90;;;;;;4973210;28;20691;-77
2021/08/07 01:04:35;;;;;;;2.40;1.33;;;16.70;99.90;;;;;;4972484;28;20197;-78
2021/08/07 01:07:08;;;;;;;1.43;1.27;;;16.70;99.90;;;;;;4972144;28;20184;-78
2021/08/07 01:09:45;;;;;;;2.53;1.50;;;16.70;99.90;;;;;;4972144;28;20173;-78
2021/08/07 01:12:24;;;;;;;2.60;1.23;;;16.70;99.90;;;;;;4972317;28;20582;-78
2021/08/07 01:14:50;;;;;;;3.43;1.30;;;16.70;99.90;;;;;;4973280;28;20268;-78
2021/08/07 01:17:18;;;;;;;2.10;1.40;;;16.70;99.90;;;;;;4975220;28;20264;-78
2021/08/07 01:20:11;;;;;;;2.13;1.00;;;16.80;99.90;;;;;;4975637;28;20222;-78
2021/08/07 01:22:54;;;;;;;2.80;1.50;;;16.80;99.90;;;;;;4975720;28;20216;-78
2021/08/07 01:25:20;;;;;;;1.80;1.30;;;16.80;99.90;;;;;;4976598;28;20165;-78
2021/08/07 01:27:46;;;;;;;3.23;1.53;;;16.80;99.90;;;;;;4976150;28;20173;-78
2021/08/07 01:30:12;;;;;;;4.27;1.80;;;16.70;99.90;;;;;;4976072;28;20744;-78
2021/08/07 01:32:38;;;;;;;2.67;1.63;;;16.80;99.90;;;;;;4977672;28;20264;-78
2021/08/07 01:35:05;;;;;;;1.70;1.30;;;16.80;99.90;;;;;;4976639;28;20220;-78
2021/08/07 01:37:30;;;;;;;3.50;1.90;;;16.80;99.90;;;;;;4975958;28;20181;-78
2021/08/07 01:39:56;;;;;;;2.90;1.60;;;16.80;99.90;;;;;;4974832;28;20227;-78
2021/08/07 01:42:23;;;;;;;4.27;1.60;;;16.80;99.90;;;;;;4975284;28;20193;-78
2021/08/07 01:44:48;;;;;;;3.03;1.50;;;16.80;99.90;;;;;;4975143;28;20649;-78
2021/08/07 01:47:31;;;;;;;2.57;1.40;;;16.80;99.90;;;;;;4975340;28;20172;-78
2021/08/07 01:50:02;;;;;;;4.03;1.60;;;16.80;99.90;;;;;;4974719;28;20173;-78
2021/08/07 01:52:29;;;;;;;2.70;1.20;;;16.80;99.90;;;;;;4975130;28;20537;-78
2021/08/07 01:54:59;;;;;;;3.17;1.60;;;16.80;99.90;;;;;;4975321;28;20188;-78
2021/08/07 01:57:25;;;;;;;2.30;1.43;;;16.90;99.90;;;;;;4975052;28;20228;-78
2021/08/07 01:59:51;;;;;;;2.57;1.60;;;16.90;99.90;;;;;;4974790;28;20189;-78
2021/08/07 02:02:17;;;;;;;2.90;1.63;;;16.80;99.90;;;;;;4975383;28;20591;-78
2021/08/07 02:04:42;;;;;;;1.90;1.40;;;16.80;99.90;;;;;;4974630;28;20181;-77
2021/08/07 02:07:08;;;;;;;4.43;1.70;;;16.80;99.90;;;;;;4974811;28;20188;-78
2021/08/07 02:09:34;;;;;;;2.07;1.70;;;16.80;99.90;;;;;;4974738;28;20644;-78
2021/08/07 02:12:00;;;;;;;3.00;2.07;;;16.80;99.90;;;;;;4974925;28;20213;-78
2021/08/07 02:14:27;;;;;;;2.43;1.80;;;16.80;99.90;;;;;;4974516;28;20255;-78
2021/08/07 02:16:52;;;;;;;2.80;1.83;;;16.80;99.90;;;;;;4974274;28;20528;-78
2021/08/07 02:19:18;;;;;;;3.90;2.00;;;16.80;99.90;;;;;;4974303;28;20176;-78
2021/08/07 02:21:43;;;;;;;4.97;2.10;;;16.80;99.90;;;;;;4974003;28;20680;-78
2021/08/07 02:24:09;;;;;;;4.67;2.30;;;16.70;99.90;;;;;;4974391;28;20191;-78
2021/08/07 02:26:34;;;;;;;2.73;1.87;;;16.70;99.90;;;;;;4974119;28;20362;-78
2021/08/07 02:29:00;;;;;;;2.67;2.17;;;16.70;99.90;;;;;;4973457;28;20177;-78
2021/08/07 02:31:26;;;;;;;6.73;2.20;;;16.60;99.90;;;;;;4957764;28;20251;-78
2021/08/07 02:33:51;;;;;;;4.43;2.40;;;16.70;99.90;;;;;;4973983;28;20177;-78
2021/08/07 02:36:17;;;;;;;3.70;2.30;;;16.60;99.90;;;;;;4973917;28;20281;-78
2021/08/07 02:38:43;;;;;;;3.70;2.23;;;16.70;99.90;;;;;;4973765;28;20188;-78
2021/08/07 02:41:09;;;;;;;3.53;2.23;;;16.70;99.90;;;;;;4973949;28;20201;-78
2021/08/07 02:43:34;;;;;;;3.90;2.20;;;16.70;99.90;;;;;;4973886;28;20243;-78
2021/08/07 02:46:00;;;;;;;4.97;2.20;;;16.70;99.90;;;;;;4973786;28;20217;-78
2021/08/07 02:48:26;;;;;;;5.43;2.20;;;16.70;99.90;;;;;;4973792;28;20676;-78
2021/08/07 02:50:52;;;;;;;4.73;2.30;;;16.60;99.90;;;;;;4973558;28;20193;-77
2021/08/07 02:53:18;;;;;;;2.40;2.20;;;16.60;99.90;;;;;;4973617;28;20696;-77
2021/08/07 02:55:43;;;;;;;3.17;2.17;;;16.60;99.90;;;;;;4974264;28;20316;-78
2021/08/07 02:58:09;;;;;;;4.23;2.30;;;16.60;99.90;;;;;;4973427;28;20231;-77
2021/08/07 03:00:36;;;;;;;4.63;2.30;;;16.60;99.90;;;;;;4973600;28;20216;-78
2021/08/07 03:03:01;;;;;;;3.50;2.40;;;16.60;99.90;;;;;;4973839;28;20201;-77
2021/08/07 03:05:27;;;;;;;4.73;2.63;;;16.50;99.90;;;;;;4973924;28;20187;-77
2021/08/07 03:07:53;;;;;;;6.87;2.33;;;16.50;99.90;;;;;;4973452;28;20601;-77
2021/08/07 03:10:18;;;;;;;3.73;2.40;;;16.50;99.90;;;;;;4978715;28;20208;-77
2021/08/07 03:12:44;;;;;;;4.67;2.50;;;16.50;99.90;;;;;;4992891;28;20176;-77
2021/08/07 03:15:11;;;;;;;3.00;2.30;;;16.40;99.90;;;;;;4993002;28;20215;-77
2021/08/07 03:17:37;;;;;;;5.27;2.67;;;16.40;99.90;;;;;;4992912;28;20535;-77
2021/08/07 03:20:04;;;;;;;3.37;2.20;;;16.30;99.90;;;;;;4992469;28;20292;-77
2021/08/07 03:22:29;;;;;;;4.50;2.83;;;16.30;99.90;;;;;;4992681;28;20215;-77
2021/08/07 03:24:55;;;;;;;3.90;2.63;;;16.30;99.90;;;;;;4993739;28;20173;-77
2021/08/07 03:27:21;;;;;;;3.70;2.50;;;16.20;99.90;;;;;;4993118;28;20173;-77
2021/08/07 03:29:46;;;;;;;4.80;2.77;;;16.20;99.90;;;;;;4993841;28;20172;-77
2021/08/07 03:32:12;;;;;;;4.60;2.50;;;16.20;99.90;;;;;;4992921;28;20194;-77
2021/08/07 03:34:37;;;;;;;3.87;2.50;;;16.10;99.90;;;;;;4993008;28;20176;-77
2021/08/07 03:37:03;;;;;;;6.77;2.67;;;16.10;99.90;;;;;;4992696;28;20184;-77
2021/08/07 03:39:28;;;;;;;2.97;2.47;;;16.00;99.90;;;;;;4991297;28;20561;-77
2021/08/07 03:41:54;;;;;;;3.57;2.37;;;16.00;99.90;;;;;;4992235;28;20266;-77
2021/08/07 03:44:20;;;;;;;3.40;2.30;;;16.00;99.90;;;;;;4992452;28;20234;-77
2021/08/07 03:46:45;;;;;;;3.10;2.73;;;16.00;99.90;;;;;;4992181;28;20195;-77
2021/08/07 03:49:11;;;;;;;4.27;2.87;;;16.00;99.90;;;;;;4992251;28;20177;-77
2021/08/07 03:51:36;;;;;;;5.10;3.00;;;15.90;99.90;;;;;;4992268;28;20199;-77
2021/08/07 03:54:02;;;;;;;3.80;2.77;;;15.90;99.90;;;;;;4992289;28;20263;-77
2021/08/07 03:56:27;;;;;;;4.27;2.70;;;15.90;99.90;;;;;;4992084;28;20172;-77
2021/08/07 03:58:53;;;;;;;4.57;3.17;;;15.90;99.90;;;;;;4992025;28;20599;-77
2021/08/07 04:01:18;;;;;;;3.43;2.67;;;15.90;99.90;;;;;;4992184;28;20204;-77
2021/08/07 04:03:44;;;;;;;3.90;3.00;;;15.90;99.90;;;;;;4991976;28;20215;-77
2021/08/07 04:06:09;;;;;;;5.00;2.80;;;15.90;99.90;;;;;;4992051;28;20181;-77
2021/08/07 04:08:35;;;;;;;5.50;2.80;;;15.90;99.90;;;;;;4992063;28;20176;-77
2021/08/07 04:11:00;;;;;;;5.20;2.60;;;15.90;99.90;;;;;;4991615;28;20223;-77
2021/08/07 04:13:26;;;;;;;4.97;2.77;;;15.90;99.90;;;;;;4991797;28;20270;-77
2021/08/07 04:15:52;;;;;;;2.67;2.30;;;15.90;99.90;;;;;;4992044;28;20176;-77
2021/08/07 04:18:17;;;;;;;3.13;2.10;;;15.90;99.90;;;;;;4992099;28;20258;-77
2021/08/07 04:20:43;;;;;;;3.10;2.20;;;15.90;99.90;;;;;;4991630;28;20204;-77
2021/08/07 04:23:08;;;;;;;3.70;2.30;;;15.90;99.90;;;;;;4991691;28;20216;-77
2021/08/07 04:25:34;;;;;;;4.57;2.47;;;15.90;99.90;;;;;;4975557;28;20177;-77
2021/08/07 04:27:59;;;;;;;3.17;2.20;;;15.90;99.90;;;;;;4991740;28;20195;-77
2021/08/07 04:30:25;;;;;;;4.03;2.33;;;15.90;99.90;;;;;;4992095;28;20188;-77
2021/08/07 04:32:51;;;;;;;5.20;2.03;;;16.00;99.90;;;;;;5007974;28;20180;-77
2021/08/07 04:35:16;;;;;;;2.50;2.00;;;16.00;99.90;;;;;;4991772;28;20187;-77
2021/08/07 04:37:50;;;;;;;3.93;2.00;;;16.00;99.90;;;;;;4991674;28;20179;-77
2021/08/07 04:40:16;;;;;;;2.40;1.90;;;16.10;99.90;;;;;;4991562;28;20196;-77
2021/08/07 04:42:41;;;;;;;5.27;1.80;;;16.10;99.90;;;;;;4992475;28;20582;-77
2021/08/07 04:45:07;;;;;;;5.23;1.90;;;16.10;99.90;;;;;;4991852;28;20200;-77
2021/08/07 04:47:33;;;;;;;3.97;1.80;;;16.20;99.90;;;;;;4991637;28;20186;-77
2021/08/07 04:49:58;;;;;;;2.17;1.93;;;16.20;99.90;;;;;;4991548;28;20177;-77
2021/08/07 04:52:24;;;;;;;3.40;1.73;;;16.20;99.90;;;;;;4995217;28;20198;-77
2021/08/07 04:54:49;;;;;;;2.53;1.70;;;16.30;99.90;;;;;;4995682;28;20191;-77
2021/08/07 04:57:15;;;;;;;6.17;2.00;;;16.30;99.90;;;;;;4995537;28;20643;-77
2021/08/07 04:59:41;;;;;;;2.83;1.80;;;16.30;99.90;;;;;;4995098;28;20337;-77
2021/08/07 05:02:07;;;;;;;4.47;2.00;;;16.30;99.90;;;;;;4995440;28;20208;-77
2021/08/07 05:04:32;;;;;;;3.43;1.87;;;16.40;99.90;;;;;;4995199;28;20196;-77
2021/08/07 05:06:58;;;;;;;2.83;1.87;;;16.50;99.90;;;;;;4995346;28;20205;-77
2021/08/07 05:09:23;;;;;;;2.37;1.70;;;16.50;99.90;;;;;;4995266;28;20640;-77
2021/08/07 05:11:49;;;;;;;3.73;1.73;;;16.50;99.90;;;;;;4995574;28;20215;-77
2021/08/07 05:14:14;;;;;;;3.37;1.97;;;16.50;99.90;;;;;;4995350;28;20179;-77
2021/08/07 05:16:40;;;;;;;3.60;1.80;;;16.50;99.90;;;;;;4995478;28;20678;-77
2021/08/07 05:19:05;;;;;;;4.33;1.90;;;16.60;99.90;;;;;;4995036;28;20548;-77
2021/08/07 05:21:31;;;;;;;3.67;1.70;;;16.60;99.90;;;;;;4995180;28;20195;-77
2021/08/07 05:23:57;;;;;;;3.40;1.63;;;16.60;99.90;;;;;;4995182;28;20282;-77
2021/08/07 05:26:22;;;;;;;3.37;1.80;;;16.60;99.90;;;;;;4995236;28;20172;-78
2021/08/07 05:28:48;;;;;;;2.47;1.80;;;16.50;99.90;;;;;;4994918;28;20183;-77
2021/08/07 05:31:13;;;;;;;5.90;1.93;;;16.50;99.90;;;;;;4995147;28;20193;-77
2021/08/07 05:33:39;;;;;;;2.97;1.50;;;16.60;99.90;;;;;;4994913;28;20172;-76
2021/08/07 05:36:04;;;;;;;3.10;1.60;;;16.70;99.90;;;;;;4994668;28;20299;-76
2021/08/07 05:38:30;;;;;;;2.57;1.50;;;16.90;99.90;;;;;;4994756;28;20529;-77
2021/08/07 05:40:56;;;;;;;2.80;1.70;;;17.00;99.90;;;;;;4994389;28;20196;-77
2021/08/07 05:43:21;;;;;;;3.67;1.60;;;17.30;99.90;;;;;;5010842;28;20208;-76
2021/08/07 05:45:47;;;;;;;2.27;1.57;;;17.50;99.90;;;;;;4994762;28;20176;-77
2021/08/07 05:48:12;;;;;;;2.90;1.40;;;17.70;99.90;;;;;;4994802;28;20179;-77
2021/08/07 05:50:38;;;;;;;7.23;1.73;;;17.70;99.90;;;;;;4994332;28;20238;-77
2021/08/07 05:53:04;;;;;;;3.57;1.60;;;17.90;99.90;;;;;;4994668;28;20586;-77
2021/08/07 05:55:29;;;;;;;3.20;1.80;;;17.90;99.90;;;;;;4994534;28;20202;-77
2021/08/07 05:57:55;;;;;;;2.80;1.40;;;18.10;99.90;;;;;;4994666;28;20207;-77
2021/08/07 06:00:20;;;;;;;3.37;1.43;;;18.20;99.90;;;;;;4994202;28;20231;-78
2021/08/07 06:02:46;;;;;;;2.73;1.47;;;18.60;99.90;;;;;;4995834;28;20208;-77
2021/08/07 06:05:11;;;;;;;1.90;1.20;;;19.40;99.90;;;;;;4994696;28;20180;-77
2021/08/07 06:07:37;;;;;;;3.37;1.30;;;19.60;99.90;;;;;;4994380;28;20180;-77
2021/08/07 06:10:03;;;;;;;2.80;1.40;;;19.50;99.90;;;;;;4994053;28;20228;-76
2021/08/07 06:12:29;;;;;;;1.83;1.30;;;19.20;99.90;;;;;;4994609;28;20614;-77
2021/08/07 06:14:54;;;;;;;2.57;1.27;;;19.00;99.90;;;;;;4994403;28;20275;-77
2021/08/07 06:17:20;;;;;;;1.03;0.93;;;18.60;99.90;;;;;;4994473;28;20679;-77
2021/08/07 06:19:45;;;;;;;2.77;1.27;;;18.40;99.90;;;;;;4994125;28;20180;-76
2021/08/07 06:22:11;;;;;;;3.23;1.30;;;18.30;99.90;;;;;;4994136;28;20227;-76
2021/08/07 06:24:36;;;;;;;4.20;1.40;;;18.10;99.90;;;;;;4993936;28;20181;-77
2021/08/07 06:27:03;;;;;;;4.23;1.40;;;18.10;99.90;;;;;;4993956;28;20857;-77
2021/08/07 06:29:29;;;;;;;2.80;1.77;;;18.10;99.90;;;;;;4993852;28;20275;-77
2021/08/07 06:31:54;;;;;;;3.37;1.43;;;18.00;99.90;;;;;;4993692;28;20216;-76
2021/08/07 06:34:20;;;;;;;2.43;1.30;;;18.10;99.90;;;;;;4993899;28;20180;-77
2021/08/07 06:36:45;;;;;;;4.70;1.20;;;18.10;99.90;;;;;;4993619;28;20176;-76
2021/08/07 06:39:11;;;;;;;5.33;1.73;;;18.10;99.90;;;;;;4984157;28;20223;-77
2021/08/07 06:41:36;;;;;;;2.80;1.43;;;18.10;99.90;;;;;;4987172;28;20801;-77
2021/08/07 06:44:02;;;;;;;4.00;1.80;;;18.10;99.90;;;;;;4993602;28;20299;-77
2021/08/07 06:46:28;;;;;;;3.17;1.47;;;18.20;99.90;;;;;;4977306;28;20184;-77
2021/08/07 06:48:55;;;;;;;4.97;1.67;;;18.10;99.90;;;;;;4993404;28;20239;-77
2021/08/07 06:51:20;;;;;;;4.13;1.70;;;18.10;99.90;;;;;;4986733;28;20196;-78
2021/08/07 06:53:46;;;;;;;4.10;1.63;;;18.10;99.90;;;;;;4993752;28;20188;-78
2021/08/07 06:56:11;;;;;;;3.37;1.80;;;18.10;99.90;;;;;;4994767;28;21379;-76
2021/08/07 06:58:37;;;;;;;3.33;1.93;;;18.30;99.90;;;;;;4994852;28;20675;-73
2021/08/07 07:01:03;;;;;;;3.10;1.63;;;18.50;99.90;;;;;;4992687;28;20210;-73
2021/08/07 07:03:28;;;;;;;3.57;1.90;;;18.50;99.90;;;;;;5013428;28;20266;-73
2021/08/07 07:05:54;;;;;;;3.73;2.07;;;18.60;99.90;;;;;;5012658;28;20651;-73
2021/08/07 07:08:19;;;;;;;4.23;1.90;;;18.60;99.90;;;;;;4976536;28;20168;-76
2021/08/07 07:10:46;;;;;;;4.47;1.93;;;18.50;99.90;;;;;;4993592;28;20212;-77
2021/08/07 07:13:12;;;;;;;5.53;2.00;;;18.50;99.90;;;;;;4993211;28;20180;-73
2021/08/07 07:15:38;;;;;;;2.50;1.90;;;18.30;99.90;;;;;;4992492;28;20725;-74
2021/08/07 07:18:04;;;;;;;3.47;2.07;;;18.20;99.90;;;;;;4994394;28;20181;-83
2021/08/07 07:20:29;;;;;;;5.00;2.00;;;18.00;99.90;;;;;;4994251;28;20196;-77
2021/08/07 07:22:55;;;;;;;3.97;2.40;;;17.90;99.90;;;;;;4995447;28;20699;-78
2021/08/07 07:25:20;;;;;;;3.40;2.10;;;17.90;99.90;;;;;;4993950;28;20188;-79
2021/08/07 07:27:46;;;;;;;3.87;2.40;;;17.90;99.90;;;;;;4993647;28;20200;-77
2021/08/07 07:30:12;;;;;;;3.43;2.13;;;17.90;99.90;;;;;;4992614;28;20260;-78
2021/08/07 07:32:37;;;;;;;5.10;2.10;;;17.90;99.90;;;;;;4992361;28;20187;-78
2021/08/07 07:35:04;;;;;;;3.07;2.03;;;17.90;99.90;;;;;;4993518;28;20726;-75
2021/08/07 07:37:30;;;;;;;2.50;1.77;;;18.00;99.90;;;;;;4992348;28;20187;-76
2021/08/07 07:39:56;;;;;;;2.93;2.00;;;18.00;99.90;;;;;;4992323;28;20172;-75
2021/08/07 07:42:21;;;;;;;3.17;2.00;;;18.00;99.90;;;;;;4992233;28;20204;-79
2021/08/07 07:44:47;;;;;;;3.40;2.03;;;18.00;99.90;;;;;;4994770;28;20707;-84
2021/08/07 07:47:12;;;;;;;4.80;2.20;;;18.00;99.90;;;;;;4993937;28;20183;-76
2021/08/07 07:49:38;;;;;;;3.20;2.10;;;18.00;99.90;;;;;;4993473;28;20636;-77
2021/08/07 07:52:04;;;;;;;4.73;2.33;;;18.00;99.90;;;;;;4992956;28;20197;-77
2021/08/07 07:54:29;;;;;;;5.50;2.23;;;18.00;99.90;;;;;;4992846;28;20643;-77
2021/08/07 07:56:55;;;;;;;4.70;2.60;;;18.00;99.90;;;;;;4993020;28;20172;-78
2021/08/07 07:59:21;;;;;;;3.90;2.30;;;17.90;99.90;;;;;;4992185;28;20567;-76
2021/08/07 08:01:46;;;;;;;3.73;2.20;;;17.90;99.90;;;;;;4992407;28;20200;-77
2021/08/07 08:04:12;;;;;;;4.33;2.30;;;17.90;99.90;;;;;;4991893;28;20215;-76
2021/08/07 08:06:37;;;;;;;3.40;2.20;;;18.00;99.90;;;;;;4991715;28;20196;-77
2021/08/07 08:09:03;;;;;;;5.17;2.37;;;18.00;99.90;;;;;;4991636;28;20172;-76
2021/08/07 08:11:28;;;;;;;4.73;2.20;;;18.00;99.90;;;;;;4993439;28;20220;-76
2021/08/07 08:13:54;;;;;;;5.00;2.10;;;18.10;99.90;;;;;;4992105;28;20191;-78
2021/08/07 08:16:20;;;;;;;5.33;2.20;;;18.30;99.90;;;;;;4992459;28;20183;-77
2021/08/07 08:18:45;;;;;;;4.17;2.10;;;18.60;99.90;;;;;;4991635;28;20231;-77
2021/08/07 08:21:11;;;;;;;2.87;1.97;;;18.80;99.90;;;;;;4991725;28;20203;-78
2021/08/07 08:23:36;;;;;;;5.17;1.80;;;19.10;99.90;;;;;;4992425;28;20210;-78
2021/08/07 08:26:02;;;;;;;4.13;1.67;;;19.40;99.90;;;;;;4990880;28;20671;-78
2021/08/07 08:28:28;;;;;;;4.63;1.50;;;19.30;99.90;;;;;;4991766;28;20203;-74
2021/08/07 08:30:53;;;;;;;3.93;1.83;;;19.20;99.90;;;;;;4991517;28;20199;-81
2021/08/07 08:33:19;;;;;;;4.63;1.87;;;19.10;99.90;;;;;;4992231;28;20179;-74
2021/08/07 08:35:46;;;;;;;4.43;1.73;;;19.00;99.90;;;;;;4991705;28;20203;-74
2021/08/07 08:38:12;;;;;;;4.37;2.07;;;18.90;99.90;;;;;;4993846;28;20747;-78
2021/08/07 08:40:38;;;;;;;3.43;2.00;;;18.80;99.90;;;;;;4993288;28;20204;-77
2021/08/07 08:43:03;;;;;;;2.33;1.60;;;18.70;99.90;;;;;;4991540;28;20298;-77
2021/08/07 08:45:29;;;;;;;4.47;2.07;;;18.60;99.90;;;;;;4991531;28;20168;-77
2021/08/07 08:47:55;;;;;;;4.63;2.17;;;18.50;99.90;;;;;;4991195;28;20254;-77
2021/08/07 08:50:23;;;;;;;5.00;2.03;;;18.40;99.90;;;;;;4992072;28;20326;-78
2021/08/07 08:52:50;;;;;;;6.63;2.30;;;18.30;99.90;;;;;;5006307;28;20233;-78
2021/08/07 08:55:15;;;;;;;5.87;2.40;;;18.30;99.90;;;;;;4996757;28;20182;-78
2021/08/07 08:57:41;;;;;;;4.47;2.23;;;18.30;99.90;;;;;;4985570;28;20640;-77
2021/08/07 09:00:08;;;;;;;3.10;2.50;;;18.30;99.90;;;;;;4990960;28;20207;-78
2021/08/07 09:02:34;;;;;;;4.60;2.50;;;18.40;99.90;;;;;;4991251;28;20558;-77
2021/08/07 09:04:59;;;;;;;4.50;2.23;;;18.50;99.90;;;;;;5007192;28;20179;-77
2021/08/07 09:07:25;;;;;;;5.07;2.70;;;18.60;99.90;;;;;;4991093;28;20641;-78
2021/08/07 09:09:55;;;;;;;2.83;2.30;;;18.80;99.90;;;;;;5005560;28;20184;-79
2021/08/07 09:12:46;;;;;;;4.37;2.30;;;18.80;99.90;;;;;;4989080;28;20243;-77
2021/08/07 09:15:31;;;;;;;6.07;2.37;;;18.80;99.90;;;;;;4989711;28;20173;-77
2021/08/07 09:18:09;;;;;;;2.70;2.20;;;18.80;99.90;;;;;;4985685;28;20175;-77
2021/08/07 09:20:35;;;;;;;2.53;1.93;;;18.80;99.90;;;;;;4994344;28;20259;-77
2021/08/07 09:23:00;;;;;;;5.33;2.10;;;18.80;99.90;;;;;;4975122;28;20223;-77
2021/08/07 09:25:26;;;;;;;4.60;2.30;;;18.80;99.90;;;;;;4994511;28;20590;-77
2021/08/07 09:27:52;;;;;;;4.97;2.30;;;18.90;99.90;;;;;;4994312;28;20242;-77
2021/08/07 09:30:18;;;;;;;5.23;2.37;;;19.00;99.90;;;;;;4994618;28;20203;-77
2021/08/07 09:32:46;;;;;;;3.97;2.23;;;19.30;99.90;;;;;;5006634;28;20271;-75
2021/08/07 09:35:13;;;;;;;4.73;2.40;;;19.40;99.90;;;;;;5012663;28;20184;-78
2021/08/07 09:37:39;;;;;;;5.37;2.37;;;19.60;99.90;;;;;;4994904;28;20168;-76
2021/08/07 09:40:06;;;;;;;4.17;2.10;;;19.90;99.90;;;;;;4997703;28;20257;-77
2021/08/07 09:42:31;;;;;;;4.67;2.10;;;20.10;99.90;;;;;;4997812;28;20214;-76
2021/08/07 09:45:02;;;;;;;7.33;2.33;;;20.30;99.90;;;;;;4997696;28;20604;-76
2021/08/07 09:47:28;;;;;;;5.13;2.20;;;20.30;99.90;;;;;;5012664;28;20168;-76
2021/08/07 09:49:53;;;;;;;5.00;2.13;;;20.20;99.90;;;;;;5013487;28;20171;-75
2021/08/07 09:52:19;;;;;;;4.70;2.07;;;20.40;99.90;;;;;;4997451;28;20183;-76
2021/08/07 09:54:45;;;;;;;5.03;2.20;;;20.70;99.90;;;;;;4977984;28;20188;-76
2021/08/07 09:57:28;;;;;;;3.83;1.90;;;20.70;99.90;;;;;;5010978;28;20196;-78
2021/08/07 09:59:54;;;;;;;3.67;2.10;;;20.90;99.90;;;;;;4993449;28;20161;-77
2021/08/07 10:02:21;;;;;;;4.13;2.33;;;21.00;99.90;;;;;;4992012;28;20650;-77
2021/08/07 10:04:46;;;;;;;3.67;2.30;;;20.90;99.90;;;;;;4993586;28;20200;-77
2021/08/07 10:07:12;;;;;;;4.77;2.53;;;20.80;99.90;;;;;;4993437;28;20301;-77
2021/08/07 10:09:37;;;;;;;5.40;2.30;;;20.90;99.90;;;;;;4993387;28;20183;-77
2021/08/07 10:12:08;;;;;;;5.60;3.30;;;21.00;99.90;;;;;;4993878;28;20590;-77
2021/08/07 10:14:37;;;;;;;7.27;3.37;;;21.20;99.90;;;;;;4993704;28;20270;-77
2021/08/07 10:17:03;;;;;;;3.53;3.13;;;21.40;99.90;;;;;;4994024;28;20176;-77
2021/08/07 10:19:29;;;;;;;5.57;3.80;;;21.50;99.90;;;;;;4993794;28;20285;-77
2021/08/07 10:21:55;;;;;;;4.17;3.43;;;21.50;99.90;;;;;;4993914;28;20285;-77
2021/08/07 10:24:21;;;;;;;4.63;3.60;;;21.60;99.90;;;;;;4993797;28;20200;-77
2021/08/07 10:26:46;;;;;;;6.70;3.57;;;21.60;99.90;;;;;;4993940;28;20215;-77
2021/08/07 10:29:12;;;;;;;7.87;4.03;;;21.50;99.90;;;;;;4993667;28;20204;-77
2021/08/07 10:31:38;;;;;;;8.60;2.90;;;21.40;99.90;;;;;;4993960;28;20663;-77
2021/08/07 10:34:04;;;;;;;6.53;3.10;;;21.30;99.90;;;;;;4993706;28;20243;-78
2021/08/07 10:36:31;;;;;;;6.13;2.90;;;21.50;99.90;;;;;;4993852;28;20275;-77
2021/08/07 10:38:57;;;;;;;5.23;2.50;;;21.60;99.90;;;;;;4993624;28;20259;-77
2021/08/07 10:41:27;;;;;;;6.50;2.40;;;21.70;99.90;;;;;;4994274;28;20666;-77
2021/08/07 10:43:53;;;;;;;4.60;2.40;;;21.80;99.90;;;;;;4994753;28;20208;-77
2021/08/07 10:46:18;;;;;;;4.37;2.00;;;21.70;99.90;;;;;;4994011;28;20176;-78
2021/08/07 10:48:45;;;;;;;6.37;1.80;;;21.70;99.90;;;;;;4992978;28;20254;-77
2021/08/07 10:51:23;;;;;;;4.17;1.80;;;21.90;99.90;;;;;;4993611;28;20196;-78
2021/08/07 10:53:49;;;;;;;2.63;1.67;;;22.20;99.90;;;;;;5009494;28;20211;-77
2021/08/07 10:56:33;;;;;;;4.27;1.90;;;22.40;99.90;;;;;;4993100;28;20183;-77
2021/08/07 10:59:11;;;;;;;3.37;1.47;;;22.40;99.90;;;;;;5009396;28;20207;-77
2021/08/07 11:01:44;;;;;;;3.73;1.50;;;22.30;99.90;;;;;;4993406;28;20235;-77
2021/08/07 11:04:14;;;;;;;5.30;1.70;;;22.30;99.90;;;;;;4993228;28;20211;-77
2021/08/07 11:06:42;;;;;;;3.13;1.50;;;22.40;99.90;;;;;;4993180;28;20173;-77
2021/08/07 11:09:14;;;;;;;3.53;1.57;;;22.70;99.90;;;;;;5009236;28;20195;-77
2021/08/07 11:11:40;;;;;;;3.67;1.27;;;23.00;99.90;;;;;;5009568;28;20208;-78
2021/08/07 11:14:21;;;;;;;4.77;1.47;;;23.00;99.90;;;;;;4994815;28;20184;-78
2021/08/07 11:17:06;;;;;;;4.67;1.43;;;22.90;99.90;;;;;;4994782;28;20599;-77
2021/08/07 11:20:04;;;;;;;3.07;1.30;;;22.80;99.90;;;;;;5009068;28;20211;-77
2021/08/07 11:22:40;;;;;;;6.50;1.60;;;22.60;99.90;;;;;;4994102;28;20231;-77
2021/08/07 11:25:06;;;;;;;5.00;1.33;;;22.40;99.90;;;;;;5009291;28;20175;-77
2021/08/07 11:30:19;;;;;;;3.97;1.23;;;22.30;99.90;;;;;;4993676;28;20679;-77
2021/08/07 11:33:04;;;;;;;3.77;2.00;;;22.20;99.90;;;;;;4993910;28;20222;-77
2021/08/07 11:38:09;;;;;;;3.93;1.20;;;22.30;99.90;;;;;;4993685;28;20226;-77
2021/08/07 11:40:50;;;;;;;3.93;1.40;;;22.20;99.90;;;;;;4993367;28;20212;-77
2021/08/07 11:43:21;;;;;;;4.87;1.30;;;22.20;99.90;;;;;;4992931;28;20266;-78
2021/08/07 11:45:47;;;;;;;3.13;1.27;;;22.40;99.90;;;;;;4991853;28;20191;-77
2021/08/07 11:48:32;;;;;;;2.90;1.23;;;22.70;99.90;;;;;;4992315;28;20173;-78
2021/08/07 11:50:59;;;;;;;3.07;1.30;;;22.80;99.90;;;;;;4992839;28;20253;-77
2021/08/07 11:53:25;;;;;;;6.03;1.23;;;22.80;99.90;;;;;;4992197;28;20656;-77
2021/08/07 11:56:04;;;;;;;3.93;1.20;;;22.70;99.90;;;;;;4992172;28;20315;-77
2021/08/07 11:58:30;;;;;;;2.93;1.00;;;22.70;99.90;;;;;;4992040;28;20648;-77
2021/08/07 12:01:05;;;;;;;2.70;1.17;;;22.80;99.90;;;;;;4991425;28;20211;-77
2021/08/07 12:03:43;;;;;;;2.90;1.20;;;22.80;99.90;;;;;;4992272;28;20199;-77
2021/08/07 12:06:10;;;;;;;3.00;1.10;;;22.70;99.90;;;;;;4993147;28;20176;-77
2021/08/07 12:08:36;;;;;;;2.43;1.00;;;22.70;99.90;;;;;;4991891;28;20183;-77
2021/08/07 12:11:09;;;;;;;3.80;1.20;;;22.70;99.90;;;;;;4991968;28;20211;-77
2021/08/07 12:13:38;;;;;;;3.77;1.00;;;22.60;99.90;;;;;;4992382;28;20183;-77
2021/08/07 12:16:12;;;;;;;3.17;1.07;;;22.50;99.90;;;;;;4992325;28;20671;-77
2021/08/07 12:18:45;;;;;;;2.43;1.10;;;22.30;99.90;;;;;;4991643;28;20198;-77
2021/08/07 12:21:12;;;;;;;2.63;1.10;;;22.30;99.90;;;;;;4992101;28;20204;-77
2021/08/07 12:23:45;;;;;;;3.67;1.20;;;22.20;99.90;;;;;;4991742;28;20637;-77
2021/08/07 12:26:11;;;;;;;3.90;1.10;;;22.20;99.90;;;;;;4991693;28;20168;-77
2021/08/07 12:28:37;;;;;;;5.17;1.30;;;22.20;99.90;;;;;;4991611;28;20176;-77
2021/08/07 12:31:03;;;;;;;3.63;1.00;;;22.30;99.90;;;;;;4991509;28;20202;-77
2021/08/07 12:33:30;;;;;;;1.67;0.80;;;22.40;99.90;;;;;;5008287;28;20183;-77
2021/08/07 12:35:56;;;;;;;2.83;0.90;;;22.50;99.90;;;;;;4992067;28;20652;-77
2021/08/07 12:38:23;;;;;;;2.43;1.10;;;22.30;99.90;;;;;;4991468;28;20187;-77
2021/08/07 12:40:51;;;;;;;2.57;1.00;;;22.20;99.90;;;;;;4991483;28;20192;-77
2021/08/07 12:43:17;;;;;;;3.90;1.20;;;22.10;99.90;;;;;;4991756;28;20203;-77
2021/08/07 12:45:43;;;;;;;5.20;1.20;;;22.00;99.90;;;;;;4991614;28;20181;-77
2021/08/07 12:48:08;;;;;;;3.60;1.00;;;21.90;99.90;;;;;;4991769;28;20653;-77
2021/08/07 12:50:34;;;;;;;4.40;1.00;;;21.90;99.90;;;;;;4992128;28;20235;-77
2021/08/07 12:53:01;;;;;;;3.27;1.10;;;22.00;99.90;;;;;;4991372;28;20172;-77